Dundas, Ohio
Current Conditions -  °F | °C
As of 1:35 PM on Saturday 25 Oct 2014 (Local Time) from KUNI Reporting Station
Broken Clouds Broken Clouds  
Wind Chill: 64°   Ceiling: 3100
Heat Index: 64°   Visibility: 10mi
Dew Point: 49°   Wind: 9mph
Humidity: 58%   Direction: 220°SW
Pressure: 29.93"   Gusts: 17mph
Location:  39.1723°N, 82.4717°W
Report Text: KUNI 251735Z AUTO 22008G15KT 10SM BKN031 BKN045 18/09 A2993 RMK AO2 T01770094
Loading
Personal Weather Stations






























Interactive Weather Map
Tropical Storm Tracking
New forecast layout! Learn more

10-Day Weather Forecast

Advertisements
Track Severe Weather on mobile